sensor_id;sensor_type;location;lat;lon;timestamp;temperature;humidity
19924;DHT22;10124;53.068;18.224;2023-05-09T00:20:27;3.20;99.90
19924;DHT22;10124;53.068;18.224;2023-05-09T00:25:23;3.20;1.00
19924;DHT22;10124;53.068;18.224;2023-05-09T00:27:50;3.00;1.00
19924;DHT22;10124;53.068;18.224;2023-05-09T00:32:46;3.10;1.00
19924;DHT22;10124;53.068;18.224;2023-05-09T00:45:06;3.60;1.00
19924;DHT22;10124;53.068;18.224;2023-05-09T00:50:02;3.10;1.00
19924;DHT22;10124;53.068;18.224;2023-05-09T00:52:32;2.90;1.00
19924;DHT22;10124;53.068;18.224;2023-05-09T00:55:01;2.90;1.00
19924;DHT22;10124;53.068;18.224;2023-05-09T01:02:24;2.30;1.00
19924;DHT22;10124;53.068;18.224;2023-05-09T01:04:52;2.60;1.00
19924;DHT22;10124;53.068;18.224;2023-05-09T01:07:37;2.70;49.00
19924;DHT22;10124;53.068;18.224;2023-05-09T01:10:10;2.50;1.00
19924;DHT22;10124;53.068;18.224;2023-05-09T01:13:01;2.50;99.90
19924;DHT22;10124;53.068;18.224;2023-05-09T01:15:40;2.50;99.90
19924;DHT22;10124;53.068;18.224;2023-05-09T01:20:50;2.50;1.00
19924;DHT22;10124;53.068;18.224;2023-05-09T01:26:18;2.50;1.00
19924;DHT22;10124;53.068;18.224;2023-05-09T01:29:30;2.40;99.90
19924;DHT22;10124;53.068;18.224;2023-05-09T01:32:09;2.50;1.00
19924;DHT22;10124;53.068;18.224;2023-05-09T01:34:39;2.40;1.00
19924;DHT22;10124;53.068;18.224;2023-05-09T01:39:38;2.30;1.00
19924;DHT22;10124;53.068;18.224;2023-05-09T01:42:08;2.20;1.00
19924;DHT22;10124;53.068;18.224;2023-05-09T01:44:40;2.20;1.00
19924;DHT22;10124;53.068;18.224;2023-05-09T01:47:08;2.20;1.00
19924;DHT22;10124;53.068;18.224;2023-05-09T01:49:37;2.10;1.00
19924;DHT22;10124;53.068;18.224;2023-05-09T01:52:15;2.00;1.00
19924;DHT22;10124;53.068;18.224;2023-05-09T01:54:44;2.10;1.00
19924;DHT22;10124;53.068;18.224;2023-05-09T01:57:12;2.10;1.00
19924;DHT22;10124;53.068;18.224;2023-05-09T01:59:43;2.00;1.00
19924;DHT22;10124;53.068;18.224;2023-05-09T02:04:40;1.80;93.40
19924;DHT22;10124;53.068;18.224;2023-05-09T02:07:10;1.80;99.90
19924;DHT22;10124;53.068;18.224;2023-05-09T02:12:06;1.80;99.90
19924;DHT22;10124;53.068;18.224;2023-05-09T02:17:01;1.90;99.90
19924;DHT22;10124;53.068;18.224;2023-05-09T02:19:34;1.80;1.00
19924;DHT22;10124;53.068;18.224;2023-05-09T02:24:32;1.70;99.90
19924;DHT22;10124;53.068;18.224;2023-05-09T02:27:04;1.60;99.90
19924;DHT22;10124;53.068;18.224;2023-05-09T02:29:37;1.60;99.90
19924;DHT22;10124;53.068;18.224;2023-05-09T02:32:11;2.00;99.90
19924;DHT22;10124;53.068;18.224;2023-05-09T02:34:41;1.60;99.90
19924;DHT22;10124;53.068;18.224;2023-05-09T02:37:09;1.60;99.90
19924;DHT22;10124;53.068;18.224;2023-05-09T02:42:06;1.20;99.90
19924;DHT22;10124;53.068;18.224;2023-05-09T02:47:03;1.40;1.00
19924;DHT22;10124;53.068;18.224;2023-05-09T02:49:31;1.20;1.00
19924;DHT22;10124;53.068;18.224;2023-05-09T02:56:56;1.20;99.90
19924;DHT22;10124;53.068;18.224;2023-05-09T02:59:24;1.60;1.00
19924;DHT22;10124;53.068;18.224;2023-05-09T03:09:17;1.20;99.90
19924;DHT22;10124;53.068;18.224;2023-05-09T03:11:44;1.20;99.90
19924;DHT22;10124;53.068;18.224;2023-05-09T03:14:12;0.60;99.90
19924;DHT22;10124;53.068;18.224;2023-05-09T03:16:40;1.10;99.90
19924;DHT22;10124;53.068;18.224;2023-05-09T03:26:42;1.10;99.90
19924;DHT22;10124;53.068;18.224;2023-05-09T03:36:42;1.00;99.90
19924;DHT22;10124;53.068;18.224;2023-05-09T03:41:42;0.60;1.00
19924;DHT22;10124;53.068;18.224;2023-05-09T03:51:36;1.20;1.00
19924;DHT22;10124;53.068;18.224;2023-05-09T04:06:34;1.50;1.00
19924;DHT22;10124;53.068;18.224;2023-05-09T05:16:15;5.40;99.90
19924;DHT22;10124;53.068;18.224;2023-05-09T05:23:43;5.50;99.90
19924;DHT22;10124;53.068;18.224;2023-05-09T05:26:12;5.20;40.80
19924;DHT22;10124;53.068;18.224;2023-05-09T05:31:07;6.00;1.00
19924;DHT22;10124;53.068;18.224;2023-05-09T05:33:35;6.70;1.00
19924;DHT22;10124;53.068;18.224;2023-05-09T05:43:29;8.00;99.90
19924;DHT22;10124;53.068;18.224;2023-05-09T06:15:54;11.10;1.00
19924;DHT22;10124;53.068;18.224;2023-05-09T06:18:35;11.40;1.00
19924;DHT22;10124;53.068;18.224;2023-05-09T06:21:03;11.80;1.00
19924;DHT22;10124;53.068;18.224;2023-05-09T06:23:31;12.10;1.00
19924;DHT22;10124;53.068;18.224;2023-05-09T06:25:59;12.40;1.00
19924;DHT22;10124;53.068;18.224;2023-05-09T06:28:26;12.60;1.00
19924;DHT22;10124;53.068;18.224;2023-05-09T06:30:54;13.00;1.00
19924;DHT22;10124;53.068;18.224;2023-05-09T06:33:21;15.10;1.00
19924;DHT22;10124;53.068;18.224;2023-05-09T06:35:49;13.90;1.00
19924;DHT22;10124;53.068;18.224;2023-05-09T06:38:16;14.40;1.00
19924;DHT22;10124;53.068;18.224;2023-05-09T06:40:43;14.90;1.00
19924;DHT22;10124;53.068;18.224;2023-05-09T06:43:11;15.40;1.00
19924;DHT22;10124;53.068;18.224;2023-05-09T06:45:38;16.20;1.00
19924;DHT22;10124;53.068;18.224;2023-05-09T06:48:05;16.50;1.00
19924;DHT22;10124;53.068;18.224;2023-05-09T06:50:33;17.10;1.00
19924;DHT22;10124;53.068;18.224;2023-05-09T06:53:00;18.00;1.00
19924;DHT22;10124;53.068;18.224;2023-05-09T06:55:28;18.30;1.00
19924;DHT22;10124;53.068;18.224;2023-05-09T06:57:56;18.70;1.00
19924;DHT22;10124;53.068;18.224;2023-05-09T07:00:23;19.30;1.00
19924;DHT22;10124;53.068;18.224;2023-05-09T07:02:51;18.90;1.00
19924;DHT22;10124;53.068;18.224;2023-05-09T07:05:18;19.50;1.00
19924;DHT22;10124;53.068;18.224;2023-05-09T07:07:46;19.60;1.00
19924;DHT22;10124;53.068;18.224;2023-05-09T07:10:13;20.00;1.00
19924;DHT22;10124;53.068;18.224;2023-05-09T07:12:40;19.40;1.00
19924;DHT22;10124;53.068;18.224;2023-05-09T07:15:08;19.20;1.00
19924;DHT22;10124;53.068;18.224;2023-05-09T07:17:36;18.90;1.00
19924;DHT22;10124;53.068;18.224;2023-05-09T07:20:04;18.60;1.00
19924;DHT22;10124;53.068;18.224;2023-05-09T07:22:33;18.70;1.00
19924;DHT22;10124;53.068;18.224;2023-05-09T07:25:05;18.80;1.00
19924;DHT22;10124;53.068;18.224;2023-05-09T07:27:33;19.40;1.00
19924;DHT22;10124;53.068;18.224;2023-05-09T07:30:05;19.80;1.00
19924;DHT22;10124;53.068;18.224;2023-05-09T07:32:33;20.20;1.00
19924;DHT22;10124;53.068;18.224;2023-05-09T07:35:01;20.30;1.00
19924;DHT22;10124;53.068;18.224;2023-05-09T07:37:29;20.70;1.00
19924;DHT22;10124;53.068;18.224;2023-05-09T07:39:58;21.30;1.00
19924;DHT22;10124;53.068;18.224;2023-05-09T07:44:55;21.10;1.00
19924;DHT22;10124;53.068;18.224;2023-05-09T07:49:50;21.20;1.00
19924;DHT22;10124;53.068;18.224;2023-05-09T07:52:18;21.40;1.00
19924;DHT22;10124;53.068;18.224;2023-05-09T07:54:45;21.20;1.00
19924;DHT22;10124;53.068;18.224;2023-05-09T07:57:13;21.40;1.00
19924;DHT22;10124;53.068;18.224;2023-05-09T07:59:40;22.50;1.00
19924;DHT22;10124;53.068;18.224;2023-05-09T08:02:08;22.10;1.00
19924;DHT22;10124;53.068;18.224;2023-05-09T08:04:37;21.80;1.00
19924;DHT22;10124;53.068;18.224;2023-05-09T08:07:05;21.80;1.00
19924;DHT22;10124;53.068;18.224;2023-05-09T08:24:20;23.50;1.00
19924;DHT22;10124;53.068;18.224;2023-05-09T08:26:48;23.30;1.00
19924;DHT22;10124;53.068;18.224;2023-05-09T08:31:44;22.60;1.00
19924;DHT22;10124;53.068;18.224;2023-05-09T08:34:12;23.10;1.00
19924;DHT22;10124;53.068;18.224;2023-05-09T08:36:40;23.40;1.00
19924;DHT22;10124;53.068;18.224;2023-05-09T08:39:07;23.00;1.00
19924;DHT22;10124;53.068;18.224;2023-05-09T08:41:37;22.50;1.00
19924;DHT22;10124;53.068;18.224;2023-05-09T08:44:04;21.60;1.00
19924;DHT22;10124;53.068;18.224;2023-05-09T08:46:37;21.50;1.00
19924;DHT22;10124;53.068;18.224;2023-05-09T08:49:05;21.10;1.00
19924;DHT22;10124;53.068;18.224;2023-05-09T08:51:36;22.00;1.00
19924;DHT22;10124;53.068;18.224;2023-05-09T08:54:04;23.70;1.00
19924;DHT22;10124;53.068;18.224;2023-05-09T08:56:33;23.20;1.00
19924;DHT22;10124;53.068;18.224;2023-05-09T09:01:29;24.20;1.00
19924;DHT22;10124;53.068;18.224;2023-05-09T09:04:00;24.00;1.00
19924;DHT22;10124;53.068;18.224;2023-05-09T09:06:28;24.70;1.00
19924;DHT22;10124;53.068;18.224;2023-05-09T09:13:55;23.80;1.00
19924;DHT22;10124;53.068;18.224;2023-05-09T09:16:25;24.10;1.00
19924;DHT22;10124;53.068;18.224;2023-05-09T09:23:54;23.90;1.00
19924;DHT22;10124;53.068;18.224;2023-05-09T09:33:48;25.10;1.00
19924;DHT22;10124;53.068;18.224;2023-05-09T09:36:26;24.60;1.00
19924;DHT22;10124;53.068;18.224;2023-05-09T09:39:02;25.40;1.00
19924;DHT22;10124;53.068;18.224;2023-05-09T09:41:38;25.60;1.00
19924;DHT22;10124;53.068;18.224;2023-05-09T09:44:16;25.50;1.00
19924;DHT22;10124;53.068;18.224;2023-05-09T09:47:02;25.40;1.00
19924;DHT22;10124;53.068;18.224;2023-05-09T09:54:26;25.20;1.00
19924;DHT22;10124;53.068;18.224;2023-05-09T09:56:54;25.80;1.00
19924;DHT22;10124;53.068;18.224;2023-05-09T09:59:24;24.90;1.00
19924;DHT22;10124;53.068;18.224;2023-05-09T10:02:02;25.50;1.00
19924;DHT22;10124;53.068;18.224;2023-05-09T10:04:36;26.10;1.00
19924;DHT22;10124;53.068;18.224;2023-05-09T10:07:06;25.90;1.00
19924;DHT22;10124;53.068;18.224;2023-05-09T10:09:34;26.00;1.00
19924;DHT22;10124;53.068;18.224;2023-05-09T10:12:05;26.50;1.00
19924;DHT22;10124;53.068;18.224;2023-05-09T10:14:34;27.30;1.00
19924;DHT22;10124;53.068;18.224;2023-05-09T10:17:04;26.40;1.00
19924;DHT22;10124;53.068;18.224;2023-05-09T10:19:32;25.60;1.00
19924;DHT22;10124;53.068;18.224;2023-05-09T10:22:02;25.40;1.00
19924;DHT22;10124;53.068;18.224;2023-05-09T10:24:50;25.40;1.00
19924;DHT22;10124;53.068;18.224;2023-05-09T10:27:26;25.80;1.00
19924;DHT22;10124;53.068;18.224;2023-05-09T10:30:18;26.80;1.00
19924;DHT22;10124;53.068;18.224;2023-05-09T10:33:14;26.70;1.00
19924;DHT22;10124;53.068;18.224;2023-05-09T10:35:44;26.70;1.00
19924;DHT22;10124;53.068;18.224;2023-05-09T10:38:12;26.20;1.00
19924;DHT22;10124;53.068;18.224;2023-05-09T10:40:40;26.20;1.00
19924;DHT22;10124;53.068;18.224;2023-05-09T10:43:08;26.40;1.00
19924;DHT22;10124;53.068;18.224;2023-05-09T10:45:35;26.40;1.00
19924;DHT22;10124;53.068;18.224;2023-05-09T10:48:04;26.30;1.00
19924;DHT22;10124;53.068;18.224;2023-05-09T10:50:34;25.90;1.00
19924;DHT22;10124;53.068;18.224;2023-05-09T10:53:04;26.20;1.00
19924;DHT22;10124;53.068;18.224;2023-05-09T10:55:55;26.60;1.00
19924;DHT22;10124;53.068;18.224;2023-05-09T10:58:30;27.40;1.00
19924;DHT22;10124;53.068;18.224;2023-05-09T11:01:13;26.80;1.00
19924;DHT22;10124;53.068;18.224;2023-05-09T11:03:56;26.80;1.00
19924;DHT22;10124;53.068;18.224;2023-05-09T11:06:52;26.40;1.00
19924;DHT22;10124;53.068;18.224;2023-05-09T11:14:50;27.30;1.00
19924;DHT22;10124;53.068;18.224;2023-05-09T11:22:26;26.60;1.00
19924;DHT22;10124;53.068;18.224;2023-05-09T11:25:06;26.80;1.00
19924;DHT22;10124;53.068;18.224;2023-05-09T11:27:40;26.20;1.00
19924;DHT22;10124;53.068;18.224;2023-05-09T11:30:11;26.60;1.00
19924;DHT22;10124;53.068;18.224;2023-05-09T11:32:44;27.10;1.00
19924;DHT22;10124;53.068;18.224;2023-05-09T11:35:17;27.10;1.00
19924;DHT22;10124;53.068;18.224;2023-05-09T11:40:17;26.90;1.00
19924;DHT22;10124;53.068;18.224;2023-05-09T11:42:47;27.00;1.00
19924;DHT22;10124;53.068;18.224;2023-05-09T11:45:16;26.60;1.00
19924;DHT22;10124;53.068;18.224;2023-05-09T11:47:45;26.60;1.00
19924;DHT22;10124;53.068;18.224;2023-05-09T11:50:15;26.70;1.00
19924;DHT22;10124;53.068;18.224;2023-05-09T11:52:43;26.90;1.00
19924;DHT22;10124;53.068;18.224;2023-05-09T11:55:13;26.90;1.00
19924;DHT22;10124;53.068;18.224;2023-05-09T11:57:44;26.60;1.00
19924;DHT22;10124;53.068;18.224;2023-05-09T12:00:13;26.10;1.00
19924;DHT22;10124;53.068;18.224;2023-05-09T12:02:43;26.40;1.00
19924;DHT22;10124;53.068;18.224;2023-05-09T12:05:14;26.20;1.00
19924;DHT22;10124;53.068;18.224;2023-05-09T12:07:42;26.20;1.00
19924;DHT22;10124;53.068;18.224;2023-05-09T12:10:12;26.10;1.00
19924;DHT22;10124;53.068;18.224;2023-05-09T12:12:42;26.50;1.00
19924;DHT22;10124;53.068;18.224;2023-05-09T12:15:11;26.90;1.00
19924;DHT22;10124;53.068;18.224;2023-05-09T12:17:41;27.60;1.00
19924;DHT22;10124;53.068;18.224;2023-05-09T12:20:09;27.70;1.00
19924;DHT22;10124;53.068;18.224;2023-05-09T12:22:37;27.80;1.00
19924;DHT22;10124;53.068;18.224;2023-05-09T12:25:07;27.20;1.00
19924;DHT22;10124;53.068;18.224;2023-05-09T12:27:38;26.60;1.00
19924;DHT22;10124;53.068;18.224;2023-05-09T12:30:06;26.50;1.00
19924;DHT22;10124;53.068;18.224;2023-05-09T12:32:37;26.50;1.00
19924;DHT22;10124;53.068;18.224;2023-05-09T12:35:07;26.20;1.00
19924;DHT22;10124;53.068;18.224;2023-05-09T12:37:37;26.50;1.00
19924;DHT22;10124;53.068;18.224;2023-05-09T12:40:08;26.70;1.00
19924;DHT22;10124;53.068;18.224;2023-05-09T12:42:42;27.30;1.00
19924;DHT22;10124;53.068;18.224;2023-05-09T12:45:11;27.30;1.00
19924;DHT22;10124;53.068;18.224;2023-05-09T12:47:39;26.70;1.00
19924;DHT22;10124;53.068;18.224;2023-05-09T12:50:09;26.30;1.00
19924;DHT22;10124;53.068;18.224;2023-05-09T12:52:40;26.70;1.00
19924;DHT22;10124;53.068;18.224;2023-05-09T12:55:27;26.80;1.00
19924;DHT22;10124;53.068;18.224;2023-05-09T12:58:00;26.60;1.00
19924;DHT22;10124;53.068;18.224;2023-05-09T13:00:28;27.00;1.00
19924;DHT22;10124;53.068;18.224;2023-05-09T13:03:19;26.40;1.00
19924;DHT22;10124;53.068;18.224;2023-05-09T13:08:24;25.90;1.00
19924;DHT22;10124;53.068;18.224;2023-05-09T13:18:38;26.30;1.00
19924;DHT22;10124;53.068;18.224;2023-05-09T13:21:06;26.60;1.00
19924;DHT22;10124;53.068;18.224;2023-05-09T13:23:34;26.10;1.00
19924;DHT22;10124;53.068;18.224;2023-05-09T13:26:02;26.50;1.00
19924;DHT22;10124;53.068;18.224;2023-05-09T13:28:29;26.50;1.00
19924;DHT22;10124;53.068;18.224;2023-05-09T13:30:56;26.20;1.00
19924;DHT22;10124;53.068;18.224;2023-05-09T13:33:25;25.60;1.00
19924;DHT22;10124;53.068;18.224;2023-05-09T13:35:53;25.20;1.00
19924;DHT22;10124;53.068;18.224;2023-05-09T13:38:20;24.90;1.00
19924;DHT22;10124;53.068;18.224;2023-05-09T13:40:47;25.40;1.00
19924;DHT22;10124;53.068;18.224;2023-05-09T13:43:15;25.40;1.00
19924;DHT22;10124;53.068;18.224;2023-05-09T13:45:43;25.40;1.00
19924;DHT22;10124;53.068;18.224;2023-05-09T13:48:10;24.70;1.00
19924;DHT22;10124;53.068;18.224;2023-05-09T13:50:38;25.00;1.00
19924;DHT22;10124;53.068;18.224;2023-05-09T13:53:06;24.70;1.00
19924;DHT22;10124;53.068;18.224;2023-05-09T13:55:33;24.80;1.00
19924;DHT22;10124;53.068;18.224;2023-05-09T13:58:01;24.50;1.00
19924;DHT22;10124;53.068;18.224;2023-05-09T14:00:29;24.80;1.00
19924;DHT22;10124;53.068;18.224;2023-05-09T14:02:57;24.50;1.00
19924;DHT22;10124;53.068;18.224;2023-05-09T14:05:25;24.20;1.00
19924;DHT22;10124;53.068;18.224;2023-05-09T14:07:53;23.80;1.00
19924;DHT22;10124;53.068;18.224;2023-05-09T14:15:19;23.30;1.00
19924;DHT22;10124;53.068;18.224;2023-05-09T14:17:46;23.60;1.00
19924;DHT22;10124;53.068;18.224;2023-05-09T14:20:14;24.00;1.00
19924;DHT22;10124;53.068;18.224;2023-05-09T14:22:47;23.90;1.00
19924;DHT22;10124;53.068;18.224;2023-05-09T14:25:15;23.60;1.00
19924;DHT22;10124;53.068;18.224;2023-05-09T14:35:10;23.00;1.00
19924;DHT22;10124;53.068;18.224;2023-05-09T14:37:39;22.70;1.00
19924;DHT22;10124;53.068;18.224;2023-05-09T14:40:08;23.00;1.00
19924;DHT22;10124;53.068;18.224;2023-05-09T14:42:36;23.00;1.00
19924;DHT22;10124;53.068;18.224;2023-05-09T14:45:05;23.00;1.00
19924;DHT22;10124;53.068;18.224;2023-05-09T14:47:33;23.00;1.00
19924;DHT22;10124;53.068;18.224;2023-05-09T14:50:02;22.60;1.00
19924;DHT22;10124;53.068;18.224;2023-05-09T14:52:34;22.50;1.00
19924;DHT22;10124;53.068;18.224;2023-05-09T14:55:02;22.10;1.00
19924;DHT22;10124;53.068;18.224;2023-05-09T14:57:33;21.90;1.00
19924;DHT22;10124;53.068;18.224;2023-05-09T15:00:00;21.70;1.00
19924;DHT22;10124;53.068;18.224;2023-05-09T15:02:31;21.50;1.00
19924;DHT22;10124;53.068;18.224;2023-05-09T15:04:58;21.20;1.00
19924;DHT22;10124;53.068;18.224;2023-05-09T15:07:28;21.00;1.00
19924;DHT22;10124;53.068;18.224;2023-05-09T15:09:55;20.60;1.00
19924;DHT22;10124;53.068;18.224;2023-05-09T15:12:23;20.20;1.00
19924;DHT22;10124;53.068;18.224;2023-05-09T15:14:50;20.00;1.00
19924;DHT22;10124;53.068;18.224;2023-05-09T15:17:20;19.90;1.00
19924;DHT22;10124;53.068;18.224;2023-05-09T15:19:49;19.70;1.00
19924;DHT22;10124;53.068;18.224;2023-05-09T15:22:17;19.40;1.00
19924;DHT22;10124;53.068;18.224;2023-05-09T15:24:44;19.20;1.00
19924;DHT22;10124;53.068;18.224;2023-05-09T15:27:12;19.00;1.00
19924;DHT22;10124;53.068;18.224;2023-05-09T15:29:39;19.00;1.00
19924;DHT22;10124;53.068;18.224;2023-05-09T15:32:08;18.80;1.00
19924;DHT22;10124;53.068;18.224;2023-05-09T15:34:35;18.80;1.00
19924;DHT22;10124;53.068;18.224;2023-05-09T15:37:03;18.80;1.00
19924;DHT22;10124;53.068;18.224;2023-05-09T15:39:33;18.70;1.00
19924;DHT22;10124;53.068;18.224;2023-05-09T15:42:01;18.70;1.00
19924;DHT22;10124;53.068;18.224;2023-05-09T15:44:30;18.60;99.90
19924;DHT22;10124;53.068;18.224;2023-05-09T15:59:19;18.30;1.00
19924;DHT22;10124;53.068;18.224;2023-05-09T16:04:15;18.30;99.90
19924;DHT22;10124;53.068;18.224;2023-05-09T16:09:11;18.00;1.00
19924;DHT22;10124;53.068;18.224;2023-05-09T16:11:40;17.90;1.00
19924;DHT22;10124;53.068;18.224;2023-05-09T16:14:08;17.60;1.00
19924;DHT22;10124;53.068;18.224;2023-05-09T16:16:39;17.60;1.00
19924;DHT22;10124;53.068;18.224;2023-05-09T16:26:32;17.60;99.90
19924;DHT22;10124;53.068;18.224;2023-05-09T16:29:00;17.50;1.00
19924;DHT22;10124;53.068;18.224;2023-05-09T16:33:57;16.90;1.00
19924;DHT22;10124;53.068;18.224;2023-05-09T16:38:52;17.20;1.00
19924;DHT22;10124;53.068;18.224;2023-05-09T16:43:48;17.90;1.00
19924;DHT22;10124;53.068;18.224;2023-05-09T16:46:16;17.00;1.00
19924;DHT22;10124;53.068;18.224;2023-05-09T16:48:44;17.50;1.00
19924;DHT22;10124;53.068;18.224;2023-05-09T16:53:39;16.90;1.00
19924;DHT22;10124;53.068;18.224;2023-05-09T16:56:07;17.10;1.00
19924;DHT22;10124;53.068;18.224;2023-05-09T16:58:38;16.60;1.00
19924;DHT22;10124;53.068;18.224;2023-05-09T17:01:08;16.70;1.00
19924;DHT22;10124;53.068;18.224;2023-05-09T17:03:35;17.70;1.00
19924;DHT22;10124;53.068;18.224;2023-05-09T17:06:03;16.60;1.00
19924;DHT22;10124;53.068;18.224;2023-05-09T17:08:31;16.80;1.00
19924;DHT22;10124;53.068;18.224;2023-05-09T17:13:26;16.50;99.90
19924;DHT22;10124;53.068;18.224;2023-05-09T17:15:54;15.90;99.90
19924;DHT22;10124;53.068;18.224;2023-05-09T17:18:23;16.50;1.00
19924;DHT22;10124;53.068;18.224;2023-05-09T17:23:31;16.20;1.00
19924;DHT22;10124;53.068;18.224;2023-05-09T17:30:56;16.20;99.90
19924;DHT22;10124;53.068;18.224;2023-05-09T17:33:37;16.40;99.90
19924;DHT22;10124;53.068;18.224;2023-05-09T17:36:06;16.50;99.90
19924;DHT22;10124;53.068;18.224;2023-05-09T17:38:34;15.70;1.00
19924;DHT22;10124;53.068;18.224;2023-05-09T17:41:02;15.50;99.90
19924;DHT22;10124;53.068;18.224;2023-05-09T17:50:54;15.80;99.90
19924;DHT22;10124;53.068;18.224;2023-05-09T17:53:22;15.30;99.90
19924;DHT22;10124;53.068;18.224;2023-05-09T17:55:50;15.20;99.90
19924;DHT22;10124;53.068;18.224;2023-05-09T18:00:47;15.20;99.90
19924;DHT22;10124;53.068;18.224;2023-05-09T18:03:14;15.20;99.90
19924;DHT22;10124;53.068;18.224;2023-05-09T18:05:42;15.10;99.90
19924;DHT22;10124;53.068;18.224;2023-05-09T18:10:38;15.00;99.90
19924;DHT22;10124;53.068;18.224;2023-05-09T18:13:07;15.00;99.90
19924;DHT22;10124;53.068;18.224;2023-05-09T18:15:34;13.80;99.90
19924;DHT22;10124;53.068;18.224;2023-05-09T18:18:05;14.40;91.20
19924;DHT22;10124;53.068;18.224;2023-05-09T18:20:33;13.40;99.90
19924;DHT22;10124;53.068;18.224;2023-05-09T18:23:01;14.10;99.90
19924;DHT22;10124;53.068;18.224;2023-05-09T18:25:28;14.20;99.90
19924;DHT22;10124;53.068;18.224;2023-05-09T18:30:27;13.30;1.00
19924;DHT22;10124;53.068;18.224;2023-05-09T18:32:54;13.40;99.90
19924;DHT22;10124;53.068;18.224;2023-05-09T18:35:26;12.40;99.90
19924;DHT22;10124;53.068;18.224;2023-05-09T18:37:54;12.10;99.90
19924;DHT22;10124;53.068;18.224;2023-05-09T18:40:21;13.00;99.90
19924;DHT22;10124;53.068;18.224;2023-05-09T18:42:49;12.20;99.90
19924;DHT22;10124;53.068;18.224;2023-05-09T18:45:16;12.50;99.90
19924;DHT22;10124;53.068;18.224;2023-05-09T18:50:12;11.80;1.00
19924;DHT22;10124;53.068;18.224;2023-05-09T18:52:40;12.00;99.90
19924;DHT22;10124;53.068;18.224;2023-05-09T18:55:08;11.80;1.00
19924;DHT22;10124;53.068;18.224;2023-05-09T19:07:33;11.50;1.00
19924;DHT22;10124;53.068;18.224;2023-05-09T19:15:00;11.30;1.00
19924;DHT22;10124;53.068;18.224;2023-05-09T19:24:58;10.80;1.00
19924;DHT22;10124;53.068;18.224;2023-05-09T20:04:33;9.70;1.00
19924;DHT22;10124;53.068;18.224;2023-05-09T20:07:02;9.60;1.00
19924;DHT22;10124;53.068;18.224;2023-05-09T20:12:01;9.40;1.00
19924;DHT22;10124;53.068;18.224;2023-05-09T20:36:46;8.60;1.00
19924;DHT22;10124;53.068;18.224;2023-05-09T20:39:17;8.50;1.00
19924;DHT22;10124;53.068;18.224;2023-05-09T20:44:14;8.30;1.00
19924;DHT22;10124;53.068;18.224;2023-05-09T20:59:04;7.90;1.00
19924;DHT22;10124;53.068;18.224;2023-05-09T21:04:04;8.20;1.00
19924;DHT22;10124;53.068;18.224;2023-05-09T21:21:19;7.80;1.00
